Accueil
METAR-TAF:

METAR-TAF

Aéroports :

Diest, Belgique

Base aérienne de Schaffen

latitude: 51-00N, longitude: 005-04E, altitude: 30 m

Observation

Le bulletin a été fait il y a 38 minutes, à 11:55 UTC
Vent 11 kt de est/nord-est
Température 2°C
Humidité 47%
Pression 1021 hPa
Visibilité 10 km ou plus
Quelques nuages à une hauteur de 22000 ft

METAR: EBDT 231155Z 06011KT 9999 FEW220 02/M08 Q1021 BLACKBLU

Heure: 13:33 (12:33 UTC)

Prévision

Le bulletin a été fait il y a 3 heures et 52 minutes, à 08:41 UTC
Prévision valable du 23 à 10 UTC au 23 à 19 UTC
Vent 12 kt de nord-est
Visibilité 10 km ou plus
Quelques nuages à une hauteur de 3000 ft
Temporairement
du 23 à 11 UTC au 23 à 16 UTC
Vent 14 kt de nord-est avec des rafales jusqu'à 24 kt

TAF: EBDT 230841Z 2310/2319 05012KT 9999 FEW030 TEMPO 2311/2316 05014G24KT

Observations et prévisions météorologiques de plus de 4000 aéroports (messages METAR et TAF).

Les stations disponibles sont représentées par des disques jaunes et rouges sur la carte.

Passer la souris dessus pour voir le nom de la station.

Cliquer dessus pour voir les observations et prévisions météorologiques.

Pour changer de carte: cliquez sur les boutons verts avec une croix noire pour zoomer, sur le bouton vert avec un tiret pour effectuer un zoom arrière, ou sur les flèches vertes pour les cartes adjacentes.


METAR-TAF: